• Join FlightAware (Why Join?)
  • Login
  • US Flag 
08:46AM EDT


 

Airport Tracker/Info


-or-


 

Live Flight TrackerFlight Track Log ✈ N704JM ✈ 05-May-2013 ✈ KSDF - KMGM

Flight Track Log - Related Links

Times and Time Zones

All times are in EDT time to prevent confusion due to time zone crossing. See the N704JM flight status page for this flight to view local times or setup timezone preferences in your user account.

Time Position Orientation Groundspeed Altitude Reporting Facility
EDT Latitude Longitude Course Direction KTS MPH feet Rate Location/Type
11:08AM 38.1333 -85.7333 228° Southwest 210 242 1,800  Level Louisville TRACON
11:09AM 38.0700 -85.8211 228° Southwest 261 300 5,000 2,280 Climbing Indianapolis Center
11:10AM 38.0331 -85.9008 240° Southwest 271 312 7,500 2,340 Climbing Indianapolis Center
11:11AM 37.9981 -85.9856 242° Southwest 271 312 9,900 1,860 Climbing Indianapolis Center
11:12AM 37.9594 -86.0831 243° Southwest 304 350 11,400 2,160 Climbing Indianapolis Center
11:13AM 37.9106 -86.2050 243° Southwest 320 368 14,400 2,760 Climbing Indianapolis Center
11:14AM 37.8692 -86.3161 245° Southwest 342 394 17,200 2,700 Climbing Indianapolis Center
11:15AM 37.8242 -86.4225 242° Southwest 344 396 20,100 2,220 Climbing Indianapolis Center
11:16AM 37.7456 -86.4544 198° South 311 358 21,900 2,220 Climbing Indianapolis Center
11:17AM 37.6592 -86.4494 177° South 306 352 24,700 2,280 Climbing Indianapolis Center
11:18AM 37.5728 -86.4483 179° South 307 353 26,600 2,040 Climbing Indianapolis Center
11:19AM 37.4800 -86.4458 179° South 325 374 28,900 2,100 Climbing Indianapolis Center
11:20AM 37.3742 -86.4436 179° South 324 373 31,000 1,080 Climbing Indianapolis Center
11:21AM 37.2889 -86.4411 179° South 341 392 31,000  Level Memphis Center
11:22AM 37.1783 -86.4389 179° South 382 440 31,000 180 Level Memphis Center
11:23AM 37.0656 -86.4339 178° South 401 461 31,400 1,080 Climbing Memphis Center
11:24AM 36.9594 -86.4314 179° South 395 455 33,200 1,260 Climbing Memphis Center
11:25AM 36.8614 -86.4283 179° South 390 449 34,000 720 Climbing Memphis Center
11:26AM 36.7528 -86.4286 180° South 384 442 34,700 480 Climbing Memphis Center
11:27AM 36.6403 -86.4239 178° South 397 457 35,000 120 Climbing Memphis Center
11:28AM 36.5233 -86.4192 178° South 410 472 35,000  Level Memphis Center
11:29AM 36.4025 -86.4172 179° South 430 495 35,000 420 Level Memphis Center
11:30AM 36.2731 -86.4133 179° South 430 495 35,900 480 Climbing Memphis Center
11:31AM 36.1561 -86.4111 179° South 425 489 36,000  Climbing Memphis Center
11:32AM 36.0414 -86.4064 178° South 419 482 36,000  Level Memphis Center
11:33AM 35.9244 -86.4044 179° South 424 488 36,000  Level Memphis Center
11:36AM 35.6353 -86.3972 179° South 422 486 36,000  Level Atlanta Center
11:37AM 35.5183 -86.3939 179° South 422 486 36,000  Level Atlanta Center
11:38AM 35.3994 -86.3906 179° South 422 486 36,000  Level Atlanta Center
11:39AM 35.2806 -86.3897 180° South 427 491 36,000  Level Atlanta Center
11:40AM 35.1847 -86.3869 179° South 427 491 36,000  Level Atlanta Center
11:41AM 35.0597 -86.3833 179° South 420 483 36,000  Level Atlanta Center
11:42AM 34.9406 -86.3825 180° South 420 483 36,000  Level Atlanta Center
11:43AM 34.8239 -86.3767 178° South 420 483 36,000  Level Atlanta Center
11:44AM 34.7069 -86.3761 180° South 420 483 36,000  Level Atlanta Center
11:45AM 34.5881 -86.3753 180° South 420 483 36,000  Level Atlanta Center
11:46AM 34.4714 -86.3694 178° South 420 483 36,000  Level Atlanta Center
11:47AM 34.3525 -86.3686 180° South 420 483 36,000  Level Atlanta Center
11:48AM 34.2336 -86.3656 179° South 420 483 36,000  Level Atlanta Center
11:49AM 34.1167 -86.3597 178° South 420 483 36,000 -540 Level Atlanta Center
11:50AM 34.0000 -86.3592 180° South 420 483 35,000 -540 Descending Atlanta Center
11:51AM 33.8853 -86.3558 179° South 420 483 35,000  Level Atlanta Center
11:52AM 33.7683 -86.3528 179° South 420 483 35,000  Level Atlanta Center
11:53AM 33.6514 -86.3497 179° South 420 483 35,000  Level Atlanta Center
11:54AM 33.5283 -86.3489 180° South 415 478 35,000 -360 Level Atlanta Center
11:55AM 33.4136 -86.3458 179° South 415 478 34,300 -1,500 Descending Atlanta Center
11:56AM 33.2947 -86.3450 180° South 421 484 32,100 -2,280 Descending Atlanta Center
11:57AM 33.1800 -86.3419 179° South 421 484 29,800 -2,640 Descending Atlanta Center
11:58AM 33.0653 -86.3392 179° South 421 484 26,900 -3,000 Descending Atlanta Center
11:59AM 32.9525 -86.3386 180° South 416 479 23,800 -3,420 Descending Atlanta Center
12:00PM 32.8439 -86.3381 180° South 409 471 20,100 -3,600 Descending Atlanta Center
12:01PM 32.7419 -86.3306 176° South 387 445 16,600 -3,300 Descending Atlanta Center
12:02PM 32.6417 -86.3281 179° South 374 430 13,600 -3,060 Descending Atlanta Center
12:03PM 32.5497 -86.3281 180° South 350 403 10,500 -2,700 Descending Atlanta Center
12:04PM 32.4706 -86.3211 176° South 318 366 8,300 -1,980 Descending Atlanta Center
12:05PM 32.4064 -86.2972 163° South 278 320 6,600 -2,280 Descending Atlanta Center
12:06PM 32.3639 -86.2250 125° Southeast 245 282 3,800 -2,100 Descending Atlanta Center
12:07PM 32.3097 -86.2211 177° South 194 223 2,400 -780 Descending Atlanta Center
12:08PM 32.2961 -86.2747 253° West 131 151 2,300 -120 Descending Atlanta Center
12:10PM 32.3000 -86.3833 180° South  Level FlightAware Approximate
12:17PM 32.3006 -86.3940 180° South  Level Estimated
12:18PM 32.3006 -86.3940 180° South  Level Estimated